sensor_id;sensor_type;location;lat;lon;timestamp;pressure;altitude;pressure_sealevel;temperature;humidity
83418;BME280;74442;50.104;14.472;2024-01-15T00:01:01;97753.00;;;0.57;67.51
83418;BME280;74442;50.104;14.472;2024-01-15T00:03:34;97757.80;;;0.56;67.84
83418;BME280;74442;50.104;14.472;2024-01-15T00:06:10;97761.18;;;0.53;68.03
83418;BME280;74442;50.104;14.472;2024-01-15T00:08:44;97756.34;;;0.50;68.30
83418;BME280;74442;50.104;14.472;2024-01-15T00:11:16;97748.75;;;0.46;68.47
83418;BME280;74442;50.104;14.472;2024-01-15T00:13:50;97754.95;;;0.36;68.73
83418;BME280;74442;50.104;14.472;2024-01-15T00:16:21;97752.88;;;0.24;69.20
83418;BME280;74442;50.104;14.472;2024-01-15T00:18:54;97747.16;;;0.09;69.53
83418;BME280;74442;50.104;14.472;2024-01-15T00:21:25;97737.73;;;-0.04;70.13
83418;BME280;74442;50.104;14.472;2024-01-15T00:23:56;97733.30;;;-0.14;70.32
83418;BME280;74442;50.104;14.472;2024-01-15T00:26:28;97736.35;;;-0.16;70.70
83418;BME280;74442;50.104;14.472;2024-01-15T00:29:02;97739.79;;;-0.15;70.58
83418;BME280;74442;50.104;14.472;2024-01-15T00:31:33;97735.32;;;-0.16;70.67
83418;BME280;74442;50.104;14.472;2024-01-15T00:34:06;97731.42;;;-0.14;70.61
83418;BME280;74442;50.104;14.472;2024-01-15T00:36:37;97738.68;;;-0.09;70.42
83418;BME280;74442;50.104;14.472;2024-01-15T00:39:10;97736.34;;;-0.06;70.22
83418;BME280;74442;50.104;14.472;2024-01-15T00:41:41;97731.38;;;-0.07;70.17
83418;BME280;74442;50.104;14.472;2024-01-15T00:44:12;97729.45;;;-0.08;70.32
83418;BME280;74442;50.104;14.472;2024-01-15T00:46:47;97724.96;;;-0.11;70.32
83418;BME280;74442;50.104;14.472;2024-01-15T00:49:19;97714.07;;;-0.08;70.05
83418;BME280;74442;50.104;14.472;2024-01-15T00:51:50;97706.25;;;-0.06;69.99
83418;BME280;74442;50.104;14.472;2024-01-15T00:54:23;97701.81;;;-0.04;69.75
83418;BME280;74442;50.104;14.472;2024-01-15T00:56:57;97699.44;;;-0.03;69.67
83418;BME280;74442;50.104;14.472;2024-01-15T00:59:29;97706.27;;;-0.03;69.76
83418;BME280;74442;50.104;14.472;2024-01-15T01:02:00;97703.35;;;-0.05;69.81
83418;BME280;74442;50.104;14.472;2024-01-15T01:04:31;97707.81;;;-0.03;69.79
83418;BME280;74442;50.104;14.472;2024-01-15T01:07:02;97702.23;;;-0.00;69.73
83418;BME280;74442;50.104;14.472;2024-01-15T01:09:36;97696.80;;;0.04;69.58
83418;BME280;74442;50.104;14.472;2024-01-15T01:12:08;97700.43;;;0.07;69.32
83418;BME280;74442;50.104;14.472;2024-01-15T01:14:41;97689.00;;;0.08;69.09
83418;BME280;74442;50.104;14.472;2024-01-15T01:17:12;97687.84;;;0.10;69.04
83418;BME280;74442;50.104;14.472;2024-01-15T01:19:43;97686.09;;;0.08;68.93
83418;BME280;74442;50.104;14.472;2024-01-15T01:22:14;97681.95;;;0.06;69.05
83418;BME280;74442;50.104;14.472;2024-01-15T01:24:45;97681.25;;;0.05;69.12
83418;BME280;74442;50.104;14.472;2024-01-15T01:27:15;97685.53;;;0.06;68.92
83418;BME280;74442;50.104;14.472;2024-01-15T01:29:45;97679.91;;;0.07;68.74
83418;BME280;74442;50.104;14.472;2024-01-15T01:32:15;97668.61;;;0.07;68.55
83418;BME280;74442;50.104;14.472;2024-01-15T01:34:51;97674.81;;;0.09;68.46
83418;BME280;74442;50.104;14.472;2024-01-15T01:37:21;97665.52;;;0.06;68.59
83418;BME280;74442;50.104;14.472;2024-01-15T01:39:53;97674.73;;;0.04;68.49
83418;BME280;74442;50.104;14.472;2024-01-15T01:42:26;97676.07;;;0.00;68.60
83418;BME280;74442;50.104;14.472;2024-01-15T01:44:57;97678.75;;;-0.02;68.70
83418;BME280;74442;50.104;14.472;2024-01-15T01:47:27;97673.63;;;-0.02;68.73
83418;BME280;74442;50.104;14.472;2024-01-15T01:49:57;97676.41;;;0.00;68.55
83418;BME280;74442;50.104;14.472;2024-01-15T01:52:28;97675.34;;;-0.02;68.60
83418;BME280;74442;50.104;14.472;2024-01-15T01:55:01;97674.13;;;-0.03;68.60
83418;BME280;74442;50.104;14.472;2024-01-15T01:57:36;97666.73;;;-0.05;68.66
83418;BME280;74442;50.104;14.472;2024-01-15T02:00:10;97660.17;;;-0.09;68.78
83418;BME280;74442;50.104;14.472;2024-01-15T02:02:41;97662.70;;;-0.12;68.73
83418;BME280;74442;50.104;14.472;2024-01-15T02:05:14;97653.81;;;-0.12;68.68
83418;BME280;74442;50.104;14.472;2024-01-15T02:07:48;97648.40;;;-0.08;68.41
83418;BME280;74442;50.104;14.472;2024-01-15T02:10:19;97645.54;;;-0.06;68.19
83418;BME280;74442;50.104;14.472;2024-01-15T02:12:50;97646.22;;;-0.05;68.20
83418;BME280;74442;50.104;14.472;2024-01-15T02:15:20;97650.14;;;-0.07;68.19
83418;BME280;74442;50.104;14.472;2024-01-15T02:17:59;97656.40;;;-0.10;68.21
83418;BME280;74442;50.104;14.472;2024-01-15T02:20:30;97649.70;;;-0.13;68.24
83418;BME280;74442;50.104;14.472;2024-01-15T02:23:10;97642.69;;;-0.13;68.28
83418;BME280;74442;50.104;14.472;2024-01-15T02:25:42;97642.24;;;-0.08;67.93
83418;BME280;74442;50.104;14.472;2024-01-15T02:28:15;97657.15;;;-0.07;67.88
83418;BME280;74442;50.104;14.472;2024-01-15T02:30:49;97645.84;;;-0.08;67.94
83418;BME280;74442;50.104;14.472;2024-01-15T02:33:20;97641.04;;;-0.09;68.04
83418;BME280;74442;50.104;14.472;2024-01-15T02:35:51;97619.45;;;-0.11;67.88
83418;BME280;74442;50.104;14.472;2024-01-15T02:38:22;97619.97;;;-0.10;67.75
83418;BME280;74442;50.104;14.472;2024-01-15T02:40:52;97613.65;;;-0.10;67.84
83418;BME280;74442;50.104;14.472;2024-01-15T02:43:22;97611.09;;;-0.09;67.72
83418;BME280;74442;50.104;14.472;2024-01-15T02:45:54;97614.48;;;-0.10;67.61
83418;BME280;74442;50.104;14.472;2024-01-15T02:48:26;97604.55;;;-0.14;67.60
83418;BME280;74442;50.104;14.472;2024-01-15T02:51:04;97613.05;;;-0.16;67.85
83418;BME280;74442;50.104;14.472;2024-01-15T02:53:35;97623.44;;;-0.18;67.79
83418;BME280;74442;50.104;14.472;2024-01-15T02:56:06;97615.23;;;-0.19;67.71
83418;BME280;74442;50.104;14.472;2024-01-15T02:58:37;97619.71;;;-0.17;67.75
83418;BME280;74442;50.104;14.472;2024-01-15T03:01:08;97615.91;;;-0.19;67.59
83418;BME280;74442;50.104;14.472;2024-01-15T03:03:40;97617.27;;;-0.19;67.74
83418;BME280;74442;50.104;14.472;2024-01-15T03:06:11;97618.45;;;-0.21;67.75
83418;BME280;74442;50.104;14.472;2024-01-15T03:08:44;97618.77;;;-0.22;67.69
83418;BME280;74442;50.104;14.472;2024-01-15T03:11:14;97624.61;;;-0.20;67.81
83418;BME280;74442;50.104;14.472;2024-01-15T03:13:45;97628.23;;;-0.18;67.74
83418;BME280;74442;50.104;14.472;2024-01-15T03:16:15;97623.11;;;-0.17;67.62
83418;BME280;74442;50.104;14.472;2024-01-15T03:18:47;97609.94;;;-0.18;67.57
83418;BME280;74442;50.104;14.472;2024-01-15T03:21:19;97612.12;;;-0.21;67.74
83418;BME280;74442;50.104;14.472;2024-01-15T03:23:49;97608.48;;;-0.25;67.83
83418;BME280;74442;50.104;14.472;2024-01-15T03:26:19;97597.34;;;-0.26;67.89
83418;BME280;74442;50.104;14.472;2024-01-15T03:28:51;97593.21;;;-0.29;67.85
83418;BME280;74442;50.104;14.472;2024-01-15T03:31:24;97592.45;;;-0.34;68.03
83418;BME280;74442;50.104;14.472;2024-01-15T03:33:54;97578.88;;;-0.39;68.22
83418;BME280;74442;50.104;14.472;2024-01-15T03:36:28;97580.72;;;-0.42;68.20
83418;BME280;74442;50.104;14.472;2024-01-15T03:38:59;97582.05;;;-0.44;68.34
83418;BME280;74442;50.104;14.472;2024-01-15T03:41:29;97590.92;;;-0.44;68.15
83418;BME280;74442;50.104;14.472;2024-01-15T03:44:01;97582.29;;;-0.40;68.00
83418;BME280;74442;50.104;14.472;2024-01-15T03:46:31;97593.77;;;-0.36;67.66
83418;BME280;74442;50.104;14.472;2024-01-15T03:49:02;97605.09;;;-0.34;67.49
83418;BME280;74442;50.104;14.472;2024-01-15T03:51:33;97613.68;;;-0.32;67.35
83418;BME280;74442;50.104;14.472;2024-01-15T03:54:04;97627.05;;;-0.30;67.29
83418;BME280;74442;50.104;14.472;2024-01-15T03:56:37;97623.13;;;-0.29;66.72
83418;BME280;74442;50.104;14.472;2024-01-15T03:59:11;97620.46;;;-0.24;66.78
83418;BME280;74442;50.104;14.472;2024-01-15T04:01:49;97612.29;;;-0.22;66.63
83418;BME280;74442;50.104;14.472;2024-01-15T04:04:21;97611.44;;;-0.22;66.40
83418;BME280;74442;50.104;14.472;2024-01-15T04:06:52;97624.44;;;-0.21;66.10
83418;BME280;74442;50.104;14.472;2024-01-15T04:09:26;97619.13;;;-0.22;66.01
83418;BME280;74442;50.104;14.472;2024-01-15T04:11:57;97611.73;;;-0.25;66.04
83418;BME280;74442;50.104;14.472;2024-01-15T04:14:31;97617.55;;;-0.24;65.98
83418;BME280;74442;50.104;14.472;2024-01-15T04:17:05;97616.00;;;-0.25;66.03
83418;BME280;74442;50.104;14.472;2024-01-15T04:19:36;97613.48;;;-0.22;65.89
83418;BME280;74442;50.104;14.472;2024-01-15T04:22:06;97624.73;;;-0.25;66.18
83418;BME280;74442;50.104;14.472;2024-01-15T04:24:38;97624.84;;;-0.29;66.41
83418;BME280;74442;50.104;14.472;2024-01-15T04:27:09;97627.20;;;-0.32;66.37
83418;BME280;74442;50.104;14.472;2024-01-15T04:29:44;97622.91;;;-0.33;66.42
83418;BME280;74442;50.104;14.472;2024-01-15T04:32:14;97613.47;;;-0.34;66.57
83418;BME280;74442;50.104;14.472;2024-01-15T04:34:47;97598.93;;;-0.35;66.48
83418;BME280;74442;50.104;14.472;2024-01-15T04:37:18;97590.00;;;-0.38;66.67
83418;BME280;74442;50.104;14.472;2024-01-15T04:40:00;97603.30;;;-0.41;66.77
83418;BME280;74442;50.104;14.472;2024-01-15T04:42:38;97593.01;;;-0.42;66.79
83418;BME280;74442;50.104;14.472;2024-01-15T04:45:12;97592.68;;;-0.42;66.57
83418;BME280;74442;50.104;14.472;2024-01-15T04:47:45;97601.09;;;-0.39;66.61
83418;BME280;74442;50.104;14.472;2024-01-15T04:50:18;97602.81;;;-0.38;66.58
83418;BME280;74442;50.104;14.472;2024-01-15T04:52:49;97608.06;;;-0.41;66.75
83418;BME280;74442;50.104;14.472;2024-01-15T04:55:24;97608.71;;;-0.43;66.61
83418;BME280;74442;50.104;14.472;2024-01-15T04:57:57;97616.91;;;-0.44;66.89
83418;BME280;74442;50.104;14.472;2024-01-15T05:00:29;97612.77;;;-0.47;66.67
83418;BME280;74442;50.104;14.472;2024-01-15T05:03:03;97616.67;;;-0.49;66.90
83418;BME280;74442;50.104;14.472;2024-01-15T05:05:35;97610.24;;;-0.55;67.15
83418;BME280;74442;50.104;14.472;2024-01-15T05:08:08;97614.85;;;-0.56;67.34
83418;BME280;74442;50.104;14.472;2024-01-15T05:10:40;97614.77;;;-0.60;67.29
83418;BME280;74442;50.104;14.472;2024-01-15T05:13:11;97618.50;;;-0.63;67.60
83418;BME280;74442;50.104;14.472;2024-01-15T05:15:50;97622.53;;;-0.66;67.60
83418;BME280;74442;50.104;14.472;2024-01-15T05:18:26;97619.52;;;-0.63;67.66
83418;BME280;74442;50.104;14.472;2024-01-15T05:21:03;97621.14;;;-0.58;67.37
83418;BME280;74442;50.104;14.472;2024-01-15T05:23:37;97630.91;;;-0.57;67.25
83418;BME280;74442;50.104;14.472;2024-01-15T05:26:07;97632.27;;;-0.57;67.23
83418;BME280;74442;50.104;14.472;2024-01-15T05:28:42;97630.57;;;-0.56;67.26
83418;BME280;74442;50.104;14.472;2024-01-15T05:31:12;97639.14;;;-0.54;67.35
83418;BME280;74442;50.104;14.472;2024-01-15T05:33:44;97643.11;;;-0.51;67.23
83418;BME280;74442;50.104;14.472;2024-01-15T05:36:14;97648.84;;;-0.46;66.95
83418;BME280;74442;50.104;14.472;2024-01-15T05:38:48;97650.56;;;-0.45;66.75
83418;BME280;74442;50.104;14.472;2024-01-15T05:41:20;97653.98;;;-0.44;66.50
83418;BME280;74442;50.104;14.472;2024-01-15T05:43:54;97650.89;;;-0.46;66.51
83418;BME280;74442;50.104;14.472;2024-01-15T05:46:27;97649.27;;;-0.51;66.70
83418;BME280;74442;50.104;14.472;2024-01-15T05:49:02;97654.40;;;-0.51;66.69
83418;BME280;74442;50.104;14.472;2024-01-15T05:51:34;97641.12;;;-0.48;66.41
83418;BME280;74442;50.104;14.472;2024-01-15T05:54:14;97642.17;;;-0.46;66.52
83418;BME280;74442;50.104;14.472;2024-01-15T05:56:50;97649.35;;;-0.46;66.50
83418;BME280;74442;50.104;14.472;2024-01-15T05:59:22;97643.23;;;-0.44;66.13
83418;BME280;74442;50.104;14.472;2024-01-15T06:01:56;97641.49;;;-0.46;66.26
83418;BME280;74442;50.104;14.472;2024-01-15T06:04:28;97635.17;;;-0.46;66.24
83418;BME280;74442;50.104;14.472;2024-01-15T06:07:00;97630.56;;;-0.45;66.36
83418;BME280;74442;50.104;14.472;2024-01-15T06:09:36;97636.89;;;-0.45;65.89
83418;BME280;74442;50.104;14.472;2024-01-15T06:12:11;97637.91;;;-0.45;66.01
83418;BME280;74442;50.104;14.472;2024-01-15T06:14:43;97632.35;;;-0.51;66.02
83418;BME280;74442;50.104;14.472;2024-01-15T06:17:13;97635.52;;;-0.56;66.18
83418;BME280;74442;50.104;14.472;2024-01-15T06:19:46;97634.54;;;-0.64;66.19
83418;BME280;74442;50.104;14.472;2024-01-15T06:22:22;97637.66;;;-0.70;66.60
83418;BME280;74442;50.104;14.472;2024-01-15T06:24:54;97640.58;;;-0.80;66.97
83418;BME280;74442;50.104;14.472;2024-01-15T06:27:28;97650.45;;;-0.83;66.94
83418;BME280;74442;50.104;14.472;2024-01-15T06:30:06;97646.05;;;-0.89;67.23
83418;BME280;74442;50.104;14.472;2024-01-15T06:32:41;97648.80;;;-0.98;67.53
83418;BME280;74442;50.104;14.472;2024-01-15T06:35:13;97646.77;;;-0.97;67.57
83418;BME280;74442;50.104;14.472;2024-01-15T06:37:47;97656.05;;;-1.03;67.62
83418;BME280;74442;50.104;14.472;2024-01-15T06:40:28;97655.89;;;-1.11;67.93
83418;BME280;74442;50.104;14.472;2024-01-15T06:43:00;97660.83;;;-1.21;68.34
83418;BME280;74442;50.104;14.472;2024-01-15T06:45:32;97658.02;;;-1.26;68.55
83418;BME280;74442;50.104;14.472;2024-01-15T06:48:07;97666.98;;;-1.30;68.81
83418;BME280;74442;50.104;14.472;2024-01-15T06:50:39;97662.07;;;-1.36;69.12
83418;BME280;74442;50.104;14.472;2024-01-15T06:53:11;97670.53;;;-1.31;68.85
83418;BME280;74442;50.104;14.472;2024-01-15T06:55:44;97665.02;;;-1.25;68.69
83418;BME280;74442;50.104;14.472;2024-01-15T06:58:17;97665.77;;;-1.22;68.42
83418;BME280;74442;50.104;14.472;2024-01-15T07:00:54;97676.21;;;-1.29;68.55
83418;BME280;74442;50.104;14.472;2024-01-15T07:03:26;97687.41;;;-1.32;69.01
83418;BME280;74442;50.104;14.472;2024-01-15T07:05:56;97690.22;;;-1.36;69.05
83418;BME280;74442;50.104;14.472;2024-01-15T07:08:35;97697.89;;;-1.37;69.18
83418;BME280;74442;50.104;14.472;2024-01-15T07:11:13;97698.85;;;-1.41;69.37
83418;BME280;74442;50.104;14.472;2024-01-15T07:13:45;97711.59;;;-1.44;69.45
83418;BME280;74442;50.104;14.472;2024-01-15T07:16:19;97709.46;;;-1.39;69.44
83418;BME280;74442;50.104;14.472;2024-01-15T07:37:15;97728.66;;;-0.36;66.21
83418;BME280;74442;50.104;14.472;2024-01-15T07:40:18;97725.29;;;-0.23;65.54
83418;BME280;74442;50.104;14.472;2024-01-15T07:43:11;97730.23;;;-0.13;65.00
83418;BME280;74442;50.104;14.472;2024-01-15T07:46:10;97737.54;;;-0.06;65.04
83418;BME280;74442;50.104;14.472;2024-01-15T07:49:30;97735.70;;;-0.03;64.57
83418;BME280;74442;50.104;14.472;2024-01-15T08:27:49;97679.26;;;2.54;54.47
83418;BME280;74442;50.104;14.472;2024-01-15T08:30:21;97684.56;;;2.23;55.28
83418;BME280;74442;50.104;14.472;2024-01-15T08:32:58;97685.10;;;2.25;55.66
83418;BME280;74442;50.104;14.472;2024-01-15T08:35:34;97691.83;;;2.04;55.89
83418;BME280;74442;50.104;14.472;2024-01-15T08:38:06;97688.98;;;1.91;56.48
83418;BME280;74442;50.104;14.472;2024-01-15T08:40:44;97689.11;;;1.85;56.75
83418;BME280;74442;50.104;14.472;2024-01-15T08:43:32;97686.43;;;1.73;56.96
83418;BME280;74442;50.104;14.472;2024-01-15T08:46:04;97678.13;;;1.63;57.10
83418;BME280;74442;50.104;14.472;2024-01-15T08:48:42;97682.16;;;1.54;57.44
83418;BME280;74442;50.104;14.472;2024-01-15T08:51:21;97672.23;;;1.55;57.33
83418;BME280;74442;50.104;14.472;2024-01-15T08:53:57;97680.50;;;1.60;57.16
83418;BME280;74442;50.104;14.472;2024-01-15T08:56:28;97679.48;;;1.59;56.92
83418;BME280;74442;50.104;14.472;2024-01-15T08:59:03;97678.19;;;1.70;56.86
83418;BME280;74442;50.104;14.472;2024-01-15T09:01:37;97675.79;;;1.71;56.57
83418;BME280;74442;50.104;14.472;2024-01-15T09:04:17;97675.83;;;1.75;56.79
83418;BME280;74442;50.104;14.472;2024-01-15T09:06:48;97679.16;;;1.64;56.88
83418;BME280;74442;50.104;14.472;2024-01-15T09:09:28;97677.42;;;1.60;56.91
83418;BME280;74442;50.104;14.472;2024-01-15T09:12:00;97684.91;;;1.54;57.18
83418;BME280;74442;50.104;14.472;2024-01-15T09:14:38;97689.57;;;1.58;57.02
83418;BME280;74442;50.104;14.472;2024-01-15T09:17:11;97691.90;;;1.70;57.13
83418;BME280;74442;50.104;14.472;2024-01-15T09:22:43;97680.86;;;1.84;56.08
83418;BME280;74442;50.104;14.472;2024-01-15T09:25:28;97689.49;;;1.91;55.98
83418;BME280;74442;50.104;14.472;2024-01-15T09:28:04;97692.80;;;1.96;55.75
83418;BME280;74442;50.104;14.472;2024-01-15T09:30:54;97685.89;;;1.92;55.49
83418;BME280;74442;50.104;14.472;2024-01-15T09:33:34;97681.14;;;1.96;55.35
83418;BME280;74442;50.104;14.472;2024-01-15T09:36:10;97679.92;;;1.95;55.67
83418;BME280;74442;50.104;14.472;2024-01-15T09:38:50;97676.98;;;1.93;55.88
83418;BME280;74442;50.104;14.472;2024-01-15T09:41:28;97673.24;;;1.96;55.91
83418;BME280;74442;50.104;14.472;2024-01-15T09:44:12;97668.43;;;1.94;55.68
83418;BME280;74442;50.104;14.472;2024-01-15T09:46:49;97659.30;;;1.91;55.65
83418;BME280;74442;50.104;14.472;2024-01-15T09:49:22;97662.89;;;1.86;55.60
83418;BME280;74442;50.104;14.472;2024-01-15T09:51:58;97654.98;;;1.86;55.81
83418;BME280;74442;50.104;14.472;2024-01-15T09:54:33;97656.85;;;1.83;55.68
83418;BME280;74442;50.104;14.472;2024-01-15T09:57:07;97652.40;;;1.86;55.71
83418;BME280;74442;50.104;14.472;2024-01-15T09:59:38;97651.53;;;1.84;55.47
83418;BME280;74442;50.104;14.472;2024-01-15T10:02:20;97654.94;;;1.80;55.41
83418;BME280;74442;50.104;14.472;2024-01-15T10:05:02;97649.81;;;1.83;55.36
83418;BME280;74442;50.104;14.472;2024-01-15T10:07:38;97634.07;;;1.89;55.46
83418;BME280;74442;50.104;14.472;2024-01-15T10:10:13;97634.44;;;1.92;55.26
83418;BME280;74442;50.104;14.472;2024-01-15T10:12:47;97620.86;;;1.88;54.98
83418;BME280;74442;50.104;14.472;2024-01-15T10:15:26;97625.83;;;1.89;55.16
83418;BME280;74442;50.104;14.472;2024-01-15T10:18:01;97624.16;;;1.95;55.17
83418;BME280;74442;50.104;14.472;2024-01-15T10:20:37;97618.81;;;1.89;55.38
83418;BME280;74442;50.104;14.472;2024-01-15T10:23:10;97615.73;;;1.92;55.41
83418;BME280;74442;50.104;14.472;2024-01-15T10:25:45;97616.09;;;1.94;55.41
83418;BME280;74442;50.104;14.472;2024-01-15T10:28:20;97605.77;;;1.89;55.30
83418;BME280;74442;50.104;14.472;2024-01-15T10:30:59;97604.05;;;1.91;55.27
83418;BME280;74442;50.104;14.472;2024-01-15T10:33:32;97603.04;;;1.94;55.19
83418;BME280;74442;50.104;14.472;2024-01-15T10:36:11;97591.67;;;1.85;55.20
83418;BME280;74442;50.104;14.472;2024-01-15T10:38:46;97599.77;;;1.90;55.07
83418;BME280;74442;50.104;14.472;2024-01-15T10:41:19;97595.34;;;1.96;55.03
83418;BME280;74442;50.104;14.472;2024-01-15T10:43:57;97590.53;;;1.95;54.66
83418;BME280;74442;50.104;14.472;2024-01-15T10:46:31;97603.95;;;2.01;54.21
83418;BME280;74442;50.104;14.472;2024-01-15T10:49:09;97585.63;;;2.08;53.87
83418;BME280;74442;50.104;14.472;2024-01-15T10:51:41;97597.52;;;2.17;54.06
83418;BME280;74442;50.104;14.472;2024-01-15T10:54:24;97597.02;;;2.22;53.70
83418;BME280;74442;50.104;14.472;2024-01-15T10:57:02;97595.36;;;2.30;53.72
83418;BME280;74442;50.104;14.472;2024-01-15T10:59:37;97583.13;;;2.25;53.64
83418;BME280;74442;50.104;14.472;2024-01-15T11:02:11;97590.20;;;2.31;53.27
83418;BME280;74442;50.104;14.472;2024-01-15T11:04:49;97585.25;;;2.37;53.36
83418;BME280;74442;50.104;14.472;2024-01-15T11:07:29;97590.74;;;2.37;53.20
83418;BME280;74442;50.104;14.472;2024-01-15T11:10:11;97592.77;;;2.32;53.36
83418;BME280;74442;50.104;14.472;2024-01-15T11:13:06;97598.75;;;2.23;53.41
83418;BME280;74442;50.104;14.472;2024-01-15T11:16:02;97595.53;;;2.31;53.43
83418;BME280;74442;50.104;14.472;2024-01-15T11:18:41;97602.27;;;2.45;53.48
83418;BME280;74442;50.104;14.472;2024-01-15T11:21:24;97597.85;;;2.55;52.96
83418;BME280;74442;50.104;14.472;2024-01-15T11:24:09;97601.64;;;2.60;52.74
83418;BME280;74442;50.104;14.472;2024-01-15T11:26:51;97601.50;;;2.68;52.90
83418;BME280;74442;50.104;14.472;2024-01-15T11:29:43;97603.23;;;2.67;52.85
83418;BME280;74442;50.104;14.472;2024-01-15T11:32:21;97608.39;;;2.72;52.31
83418;BME280;74442;50.104;14.472;2024-01-15T11:35:17;97606.89;;;2.90;52.40
83418;BME280;74442;50.104;14.472;2024-01-15T11:38:01;97599.16;;;2.93;52.09
83418;BME280;74442;50.104;14.472;2024-01-15T11:40:41;97596.79;;;3.04;52.15
83418;BME280;74442;50.104;14.472;2024-01-15T11:43:18;97589.22;;;3.00;51.88
83418;BME280;74442;50.104;14.472;2024-01-15T11:46:11;97595.06;;;3.08;51.53
83418;BME280;74442;50.104;14.472;2024-01-15T11:48:46;97595.60;;;3.20;51.71
83418;BME280;74442;50.104;14.472;2024-01-15T11:51:27;97595.09;;;3.31;51.27
83418;BME280;74442;50.104;14.472;2024-01-15T11:54:07;97593.04;;;3.49;50.90
83418;BME280;74442;50.104;14.472;2024-01-15T11:56:48;97590.79;;;3.69;50.67
83418;BME280;74442;50.104;14.472;2024-01-15T11:59:24;97580.61;;;3.87;50.02
83418;BME280;74442;50.104;14.472;2024-01-15T12:02:14;97581.48;;;3.93;49.06
83418;BME280;74442;50.104;14.472;2024-01-15T12:04:57;97579.55;;;3.98;48.99
83418;BME280;74442;50.104;14.472;2024-01-15T12:07:31;97586.38;;;4.23;48.54
83418;BME280;74442;50.104;14.472;2024-01-15T12:10:05;97578.12;;;4.66;47.55
83418;BME280;74442;50.104;14.472;2024-01-15T12:13:02;97570.36;;;4.62;47.40
83418;BME280;74442;50.104;14.472;2024-01-15T12:15:50;97574.33;;;4.65;47.46
83418;BME280;74442;50.104;14.472;2024-01-15T12:18:28;97571.54;;;4.69;47.51
83418;BME280;74442;50.104;14.472;2024-01-15T12:21:01;97571.95;;;4.87;47.00
83418;BME280;74442;50.104;14.472;2024-01-15T12:23:33;97569.84;;;4.66;46.93
83418;BME280;74442;50.104;14.472;2024-01-15T12:26:10;97570.75;;;4.09;48.41
83418;BME280;74442;50.104;14.472;2024-01-15T12:28:44;97574.41;;;3.87;49.32
83418;BME280;74442;50.104;14.472;2024-01-15T12:31:22;97578.99;;;4.17;48.83
83418;BME280;74442;50.104;14.472;2024-01-15T12:33:56;97576.52;;;4.32;48.38
83418;BME280;74442;50.104;14.472;2024-01-15T12:36:35;97572.48;;;4.05;49.05
83418;BME280;74442;50.104;14.472;2024-01-15T12:39:10;97561.11;;;4.05;49.06
83418;BME280;74442;50.104;14.472;2024-01-15T12:41:50;97577.71;;;4.75;47.59
83418;BME280;74442;50.104;14.472;2024-01-15T12:44:23;97577.69;;;5.10;46.56
83418;BME280;74442;50.104;14.472;2024-01-15T12:46:54;97579.62;;;4.72;47.28
83418;BME280;74442;50.104;14.472;2024-01-15T12:49:27;97577.46;;;4.10;48.61
83418;BME280;74442;50.104;14.472;2024-01-15T12:52:03;97578.21;;;3.75;49.72
83418;BME280;74442;50.104;14.472;2024-01-15T12:54:39;97573.26;;;3.58;50.23
83418;BME280;74442;50.104;14.472;2024-01-15T12:57:10;97575.14;;;3.57;50.44
83418;BME280;74442;50.104;14.472;2024-01-15T12:59:44;97587.54;;;3.43;50.77
83418;BME280;74442;50.104;14.472;2024-01-15T13:02:15;97582.20;;;3.43;50.50
83418;BME280;74442;50.104;14.472;2024-01-15T13:04:48;97585.28;;;3.36;50.28
83418;BME280;74442;50.104;14.472;2024-01-15T13:07:22;97586.83;;;3.38;50.24
83418;BME280;74442;50.104;14.472;2024-01-15T13:09:54;97574.45;;;3.62;49.48
83418;BME280;74442;50.104;14.472;2024-01-15T13:12:29;97570.85;;;4.27;48.00
83418;BME280;74442;50.104;14.472;2024-01-15T13:15:04;97572.78;;;4.95;46.55
83418;BME280;74442;50.104;14.472;2024-01-15T13:17:45;97562.40;;;5.67;45.24
83418;BME280;74442;50.104;14.472;2024-01-15T13:20:18;97565.38;;;6.17;43.53
83418;BME280;74442;50.104;14.472;2024-01-15T13:22:54;97569.41;;;6.12;43.10
83418;BME280;74442;50.104;14.472;2024-01-15T13:25:48;97566.02;;;6.37;42.58
83418;BME280;74442;50.104;14.472;2024-01-15T13:28:18;97562.42;;;6.63;41.47
83418;BME280;74442;50.104;14.472;2024-01-15T13:31:07;97563.61;;;6.64;41.18
83418;BME280;74442;50.104;14.472;2024-01-15T13:33:48;97565.81;;;6.54;41.12
83418;BME280;74442;50.104;14.472;2024-01-15T13:36:27;97571.12;;;6.44;41.40
83418;BME280;74442;50.104;14.472;2024-01-15T13:38:58;97577.48;;;6.74;41.28
83418;BME280;74442;50.104;14.472;2024-01-15T13:41:29;97576.59;;;7.36;40.19
83418;BME280;74442;50.104;14.472;2024-01-15T13:44:05;97565.63;;;7.92;38.89
83418;BME280;74442;50.104;14.472;2024-01-15T13:46:41;97572.46;;;8.07;37.96
83418;BME280;74442;50.104;14.472;2024-01-15T13:49:15;97563.55;;;7.82;38.28
83418;BME280;74442;50.104;14.472;2024-01-15T13:51:48;97563.23;;;7.70;38.14
83418;BME280;74442;50.104;14.472;2024-01-15T13:54:22;97567.30;;;7.95;37.99
83418;BME280;74442;50.104;14.472;2024-01-15T13:57:01;97559.65;;;8.15;37.43
83418;BME280;74442;50.104;14.472;2024-01-15T13:59:35;97552.36;;;7.36;38.54
83418;BME280;74442;50.104;14.472;2024-01-15T14:02:09;97565.85;;;6.21;40.67
83418;BME280;74442;50.104;14.472;2024-01-15T14:04:42;97571.23;;;5.83;41.92
83418;BME280;74442;50.104;14.472;2024-01-15T14:07:15;97576.05;;;5.45;43.05
83418;BME280;74442;50.104;14.472;2024-01-15T14:09:51;97574.35;;;5.41;43.27
83418;BME280;74442;50.104;14.472;2024-01-15T14:12:22;97578.61;;;5.88;42.87
83418;BME280;74442;50.104;14.472;2024-01-15T14:14:55;97576.24;;;6.02;41.80
83418;BME280;74442;50.104;14.472;2024-01-15T14:17:28;97578.43;;;6.09;41.92
83418;BME280;74442;50.104;14.472;2024-01-15T14:20:00;97583.14;;;6.50;41.35
83418;BME280;74442;50.104;14.472;2024-01-15T14:22:32;97585.40;;;6.64;41.22
83418;BME280;74442;50.104;14.472;2024-01-15T14:25:07;97581.27;;;6.48;41.04
83418;BME280;74442;50.104;14.472;2024-01-15T14:27:40;97589.13;;;5.90;42.07
83418;BME280;74442;50.104;14.472;2024-01-15T14:30:17;97593.45;;;5.24;43.53
83418;BME280;74442;50.104;14.472;2024-01-15T14:32:53;97592.41;;;4.66;44.97